sensor_id;sensor_type;location;lat;lon;timestamp;P1;durP1;ratioP1;P2;durP2;ratioP2
69890;SDS011;57170;43.964;21.262;2022-10-04T00:02:23;6.05;;;3.42;;
69890;SDS011;57170;43.964;21.262;2022-10-04T00:04:52;8.38;;;3.95;;
69890;SDS011;57170;43.964;21.262;2022-10-04T00:07:33;7.55;;;3.67;;
69890;SDS011;57170;43.964;21.262;2022-10-04T00:10:22;8.30;;;3.83;;
69890;SDS011;57170;43.964;21.262;2022-10-04T00:12:49;6.22;;;2.97;;
69890;SDS011;57170;43.964;21.262;2022-10-04T00:17:59;7.60;;;3.17;;
69890;SDS011;57170;43.964;21.262;2022-10-04T00:25:51;7.30;;;3.67;;
69890;SDS011;57170;43.964;21.262;2022-10-04T00:30:44;7.00;;;2.80;;
69890;SDS011;57170;43.964;21.262;2022-10-04T00:33:10;8.40;;;3.30;;
69890;SDS011;57170;43.964;21.262;2022-10-04T00:35:57;7.03;;;3.05;;
69890;SDS011;57170;43.964;21.262;2022-10-04T00:38:26;3.03;;;2.15;;
69890;SDS011;57170;43.964;21.262;2022-10-04T00:40:58;8.27;;;3.88;;
69890;SDS011;57170;43.964;21.262;2022-10-04T00:43:35;6.30;;;3.30;;
69890;SDS011;57170;43.964;21.262;2022-10-04T00:46:12;5.30;;;3.08;;
69890;SDS011;57170;43.964;21.262;2022-10-04T00:52:10;6.78;;;2.88;;
69890;SDS011;57170;43.964;21.262;2022-10-04T00:54:45;6.07;;;3.05;;
69890;SDS011;57170;43.964;21.262;2022-10-04T00:56:53;6.32;;;2.67;;
69890;SDS011;57170;43.964;21.262;2022-10-04T01:02:00;7.57;;;3.92;;
69890;SDS011;57170;43.964;21.262;2022-10-04T01:04:32;6.43;;;3.03;;
69890;SDS011;57170;43.964;21.262;2022-10-04T01:07:01;7.65;;;2.92;;
69890;SDS011;57170;43.964;21.262;2022-10-04T01:09:30;5.85;;;3.72;;
69890;SDS011;57170;43.964;21.262;2022-10-04T01:12:09;7.60;;;3.25;;
69890;SDS011;57170;43.964;21.262;2022-10-04T01:14:45;6.35;;;3.47;;
69890;SDS011;57170;43.964;21.262;2022-10-04T01:17:13;6.55;;;3.05;;
69890;SDS011;57170;43.964;21.262;2022-10-04T01:19:48;6.90;;;3.05;;
69890;SDS011;57170;43.964;21.262;2022-10-04T01:22:28;7.38;;;3.33;;
69890;SDS011;57170;43.964;21.262;2022-10-04T01:24:56;8.07;;;3.33;;
69890;SDS011;57170;43.964;21.262;2022-10-04T01:30:08;5.22;;;2.75;;
69890;SDS011;57170;43.964;21.262;2022-10-04T01:32:36;12.18;;;3.42;;
69890;SDS011;57170;43.964;21.262;2022-10-04T01:35:02;6.82;;;3.80;;
69890;SDS011;57170;43.964;21.262;2022-10-04T01:37:28;6.00;;;3.20;;
69890;SDS011;57170;43.964;21.262;2022-10-04T01:39:54;5.53;;;2.90;;
69890;SDS011;57170;43.964;21.262;2022-10-04T01:42:22;6.88;;;3.85;;
69890;SDS011;57170;43.964;21.262;2022-10-04T01:50:36;8.18;;;3.78;;
69890;SDS011;57170;43.964;21.262;2022-10-04T01:55:33;5.13;;;3.53;;
69890;SDS011;57170;43.964;21.262;2022-10-04T02:00:33;4.47;;;2.53;;
69890;SDS011;57170;43.964;21.262;2022-10-04T02:03:00;4.35;;;2.95;;
69890;SDS011;57170;43.964;21.262;2022-10-04T02:05:29;4.78;;;3.03;;
69890;SDS011;57170;43.964;21.262;2022-10-04T02:08:01;6.25;;;3.22;;
69890;SDS011;57170;43.964;21.262;2022-10-04T02:10:28;6.75;;;2.70;;
69890;SDS011;57170;43.964;21.262;2022-10-04T02:12:54;5.40;;;2.75;;
69890;SDS011;57170;43.964;21.262;2022-10-04T02:15:21;4.63;;;2.92;;
69890;SDS011;57170;43.964;21.262;2022-10-04T02:17:50;8.07;;;3.08;;
69890;SDS011;57170;43.964;21.262;2022-10-04T02:20:18;4.40;;;3.42;;
69890;SDS011;57170;43.964;21.262;2022-10-04T02:22:45;6.70;;;3.70;;
69890;SDS011;57170;43.964;21.262;2022-10-04T02:25:13;6.32;;;2.67;;
69890;SDS011;57170;43.964;21.262;2022-10-04T02:27:41;6.03;;;3.45;;
69890;SDS011;57170;43.964;21.262;2022-10-04T02:30:08;5.75;;;3.13;;
69890;SDS011;57170;43.964;21.262;2022-10-04T02:32:35;10.05;;;3.67;;
69890;SDS011;57170;43.964;21.262;2022-10-04T02:35:21;5.47;;;3.47;;
69890;SDS011;57170;43.964;21.262;2022-10-04T02:37:48;8.57;;;3.95;;
69890;SDS011;57170;43.964;21.262;2022-10-04T02:40:18;5.50;;;3.03;;
69890;SDS011;57170;43.964;21.262;2022-10-04T02:42:53;6.22;;;3.50;;
69890;SDS011;57170;43.964;21.262;2022-10-04T02:45:26;7.53;;;2.80;;
69890;SDS011;57170;43.964;21.262;2022-10-04T02:48:05;4.35;;;2.90;;
69890;SDS011;57170;43.964;21.262;2022-10-04T02:50:40;5.95;;;2.85;;
69890;SDS011;57170;43.964;21.262;2022-10-04T02:53:33;4.22;;;2.70;;
69890;SDS011;57170;43.964;21.262;2022-10-04T02:56:02;3.83;;;2.75;;
69890;SDS011;57170;43.964;21.262;2022-10-04T02:58:28;5.93;;;3.42;;
69890;SDS011;57170;43.964;21.262;2022-10-04T03:00:56;10.35;;;3.08;;
69890;SDS011;57170;43.964;21.262;2022-10-04T03:03:29;5.32;;;2.97;;
69890;SDS011;57170;43.964;21.262;2022-10-04T03:06:04;9.77;;;3.15;;
69890;SDS011;57170;43.964;21.262;2022-10-04T03:08:34;4.25;;;2.45;;
69890;SDS011;57170;43.964;21.262;2022-10-04T03:11:01;6.85;;;2.70;;
69890;SDS011;57170;43.964;21.262;2022-10-04T03:13:28;6.07;;;2.75;;
69890;SDS011;57170;43.964;21.262;2022-10-04T03:15:55;3.63;;;2.78;;
69890;SDS011;57170;43.964;21.262;2022-10-04T03:18:21;5.25;;;2.60;;
69890;SDS011;57170;43.964;21.262;2022-10-04T03:20:48;5.63;;;2.67;;
69890;SDS011;57170;43.964;21.262;2022-10-04T03:23:15;7.45;;;3.20;;
69890;SDS011;57170;43.964;21.262;2022-10-04T03:28:14;8.48;;;3.45;;
69890;SDS011;57170;43.964;21.262;2022-10-04T03:30:44;8.55;;;3.35;;
69890;SDS011;57170;43.964;21.262;2022-10-04T03:33:29;8.85;;;3.55;;
69890;SDS011;57170;43.964;21.262;2022-10-04T03:35:56;6.38;;;3.38;;
69890;SDS011;57170;43.964;21.262;2022-10-04T03:38:23;7.07;;;4.60;;
69890;SDS011;57170;43.964;21.262;2022-10-04T03:40:57;8.35;;;3.20;;
69890;SDS011;57170;43.964;21.262;2022-10-04T03:43:25;7.25;;;3.42;;
69890;SDS011;57170;43.964;21.262;2022-10-04T03:45:51;4.25;;;2.33;;
69890;SDS011;57170;43.964;21.262;2022-10-04T03:48:30;6.35;;;3.60;;
69890;SDS011;57170;43.964;21.262;2022-10-04T03:50:58;6.35;;;3.13;;
69890;SDS011;57170;43.964;21.262;2022-10-04T03:53:35;4.47;;;2.70;;
69890;SDS011;57170;43.964;21.262;2022-10-04T03:56:11;5.63;;;2.95;;
69890;SDS011;57170;43.964;21.262;2022-10-04T03:58:37;5.47;;;3.47;;
69890;SDS011;57170;43.964;21.262;2022-10-04T04:03:44;5.45;;;3.00;;
69890;SDS011;57170;43.964;21.262;2022-10-04T04:06:13;6.00;;;3.20;;
69890;SDS011;57170;43.964;21.262;2022-10-04T04:08:41;8.57;;;3.65;;
69890;SDS011;57170;43.964;21.262;2022-10-04T04:11:15;7.07;;;2.90;;
69890;SDS011;57170;43.964;21.262;2022-10-04T04:13:54;6.40;;;3.10;;
69890;SDS011;57170;43.964;21.262;2022-10-04T04:16:23;6.32;;;3.58;;
69890;SDS011;57170;43.964;21.262;2022-10-04T04:18:50;6.50;;;3.83;;
69890;SDS011;57170;43.964;21.262;2022-10-04T04:21:18;6.40;;;3.55;;
69890;SDS011;57170;43.964;21.262;2022-10-04T04:24:18;7.68;;;3.60;;
69890;SDS011;57170;43.964;21.262;2022-10-04T04:26:38;7.28;;;3.80;;
69890;SDS011;57170;43.964;21.262;2022-10-04T04:31:46;6.97;;;3.85;;
69890;SDS011;57170;43.964;21.262;2022-10-04T04:36:45;6.28;;;3.60;;
69890;SDS011;57170;43.964;21.262;2022-10-04T04:39:16;8.43;;;3.22;;
69890;SDS011;57170;43.964;21.262;2022-10-04T04:49:50;4.93;;;3.42;;
69890;SDS011;57170;43.964;21.262;2022-10-04T04:52:16;9.38;;;4.10;;
69890;SDS011;57170;43.964;21.262;2022-10-04T04:54:44;6.43;;;4.40;;
69890;SDS011;57170;43.964;21.262;2022-10-04T04:57:13;7.35;;;4.05;;
69890;SDS011;57170;43.964;21.262;2022-10-04T04:59:42;9.45;;;4.18;;
69890;SDS011;57170;43.964;21.262;2022-10-04T05:02:28;8.25;;;3.95;;
69890;SDS011;57170;43.964;21.262;2022-10-04T05:07:39;5.88;;;3.92;;
69890;SDS011;57170;43.964;21.262;2022-10-04T05:12:46;6.95;;;3.83;;
69890;SDS011;57170;43.964;21.262;2022-10-04T05:15:12;6.40;;;3.45;;
69890;SDS011;57170;43.964;21.262;2022-10-04T05:17:38;7.05;;;5.03;;
69890;SDS011;57170;43.964;21.262;2022-10-04T05:20:05;7.53;;;3.92;;
69890;SDS011;57170;43.964;21.262;2022-10-04T05:22:31;5.22;;;3.20;;
69890;SDS011;57170;43.964;21.262;2022-10-04T05:25:04;12.68;;;4.53;;
69890;SDS011;57170;43.964;21.262;2022-10-04T05:27:36;6.13;;;3.83;;
69890;SDS011;57170;43.964;21.262;2022-10-04T05:33:01;7.20;;;3.40;;
69890;SDS011;57170;43.964;21.262;2022-10-04T05:35:28;8.48;;;3.78;;
69890;SDS011;57170;43.964;21.262;2022-10-04T05:41:09;7.18;;;3.85;;
69890;SDS011;57170;43.964;21.262;2022-10-04T05:43:45;9.52;;;3.97;;
69890;SDS011;57170;43.964;21.262;2022-10-04T05:46:22;9.80;;;4.30;;
69890;SDS011;57170;43.964;21.262;2022-10-04T05:48:53;5.93;;;4.07;;
69890;SDS011;57170;43.964;21.262;2022-10-04T05:51:24;8.50;;;4.25;;
69890;SDS011;57170;43.964;21.262;2022-10-04T05:53:54;8.20;;;3.53;;
69890;SDS011;57170;43.964;21.262;2022-10-04T05:56:37;10.52;;;5.05;;
69890;SDS011;57170;43.964;21.262;2022-10-04T05:59:20;8.35;;;4.28;;
69890;SDS011;57170;43.964;21.262;2022-10-04T06:01:55;8.77;;;4.05;;
69890;SDS011;57170;43.964;21.262;2022-10-04T06:07:28;9.80;;;4.55;;
69890;SDS011;57170;43.964;21.262;2022-10-04T06:09:55;7.32;;;4.85;;
69890;SDS011;57170;43.964;21.262;2022-10-04T06:17:47;6.78;;;3.85;;
69890;SDS011;57170;43.964;21.262;2022-10-04T06:22:50;8.38;;;3.75;;
69890;SDS011;57170;43.964;21.262;2022-10-04T06:25:23;7.25;;;5.63;;
69890;SDS011;57170;43.964;21.262;2022-10-04T06:27:56;7.13;;;3.53;;
69890;SDS011;57170;43.964;21.262;2022-10-04T06:30:25;7.47;;;3.83;;
69890;SDS011;57170;43.964;21.262;2022-10-04T06:32:55;8.88;;;4.40;;
69890;SDS011;57170;43.964;21.262;2022-10-04T06:48:39;11.15;;;8.75;;
69890;SDS011;57170;43.964;21.262;2022-10-04T06:59:05;7.10;;;3.88;;
69890;SDS011;57170;43.964;21.262;2022-10-04T07:01:44;7.05;;;3.63;;
69890;SDS011;57170;43.964;21.262;2022-10-04T07:06:46;6.30;;;3.70;;
69890;SDS011;57170;43.964;21.262;2022-10-04T07:09:15;6.57;;;3.97;;
69890;SDS011;57170;43.964;21.262;2022-10-04T07:11:45;8.32;;;3.80;;
69890;SDS011;57170;43.964;21.262;2022-10-04T07:14:14;7.32;;;3.05;;
69890;SDS011;57170;43.964;21.262;2022-10-04T07:19:41;6.93;;;6.32;;
69890;SDS011;57170;43.964;21.262;2022-10-04T07:24:52;5.30;;;3.30;;
69890;SDS011;57170;43.964;21.262;2022-10-04T07:29:51;5.72;;;4.50;;
69890;SDS011;57170;43.964;21.262;2022-10-04T07:32:28;7.18;;;3.20;;
69890;SDS011;57170;43.964;21.262;2022-10-04T07:37:24;6.55;;;3.65;;
69890;SDS011;57170;43.964;21.262;2022-10-04T07:40:08;7.18;;;3.20;;
69890;SDS011;57170;43.964;21.262;2022-10-04T07:45:15;8.38;;;3.17;;
69890;SDS011;57170;43.964;21.262;2022-10-04T07:47:42;6.72;;;3.20;;
69890;SDS011;57170;43.964;21.262;2022-10-04T08:06:57;7.60;;;3.53;;
69890;SDS011;57170;43.964;21.262;2022-10-04T08:20:01;7.35;;;5.70;;
69890;SDS011;57170;43.964;21.262;2022-10-04T08:37:34;6.78;;;3.42;;
69890;SDS011;57170;43.964;21.262;2022-10-04T08:45:19;11.05;;;6.10;;
69890;SDS011;57170;43.964;21.262;2022-10-04T08:48:04;6.03;;;4.80;;
69890;SDS011;57170;43.964;21.262;2022-10-04T09:06:22;6.95;;;3.95;;
69890;SDS011;57170;43.964;21.262;2022-10-04T09:09:03;7.22;;;5.70;;
69890;SDS011;57170;43.964;21.262;2022-10-04T09:16:46;5.93;;;5.18;;
69890;SDS011;57170;43.964;21.262;2022-10-04T09:24:19;5.82;;;4.10;;
69890;SDS011;57170;43.964;21.262;2022-10-04T09:29:26;5.40;;;3.22;;
69890;SDS011;57170;43.964;21.262;2022-10-04T09:45:47;5.88;;;3.45;;
69890;SDS011;57170;43.964;21.262;2022-10-04T09:48:23;5.32;;;3.03;;
69890;SDS011;57170;43.964;21.262;2022-10-04T09:53:43;8.20;;;4.57;;
69890;SDS011;57170;43.964;21.262;2022-10-04T09:56:25;6.88;;;3.47;;
69890;SDS011;57170;43.964;21.262;2022-10-04T10:11:48;7.80;;;4.68;;
69890;SDS011;57170;43.964;21.262;2022-10-04T10:35:18;7.85;;;3.33;;
69890;SDS011;57170;43.964;21.262;2022-10-04T10:45:36;6.05;;;4.72;;
69890;SDS011;57170;43.964;21.262;2022-10-04T11:03:38;4.38;;;3.20;;
69890;SDS011;57170;43.964;21.262;2022-10-04T11:06:15;6.35;;;3.30;;
69890;SDS011;57170;43.964;21.262;2022-10-04T11:08:50;5.68;;;3.33;;
69890;SDS011;57170;43.964;21.262;2022-10-04T11:21:57;7.25;;;3.45;;
69890;SDS011;57170;43.964;21.262;2022-10-04T11:27:13;4.53;;;2.75;;
69890;SDS011;57170;43.964;21.262;2022-10-04T11:48:38;9.55;;;3.63;;
69890;SDS011;57170;43.964;21.262;2022-10-04T11:56:26;7.43;;;3.53;;
69890;SDS011;57170;43.964;21.262;2022-10-04T12:09:14;10.23;;;3.70;;
69890;SDS011;57170;43.964;21.262;2022-10-04T12:14:34;6.10;;;3.25;;
69890;SDS011;57170;43.964;21.262;2022-10-04T12:46:15;6.10;;;3.88;;
69890;SDS011;57170;43.964;21.262;2022-10-04T12:49:26;4.50;;;3.22;;
69890;SDS011;57170;43.964;21.262;2022-10-04T12:51:42;5.32;;;2.92;;
69890;SDS011;57170;43.964;21.262;2022-10-04T12:59:50;4.75;;;3.10;;
69890;SDS011;57170;43.964;21.262;2022-10-04T13:04:53;3.80;;;2.92;;
69890;SDS011;57170;43.964;21.262;2022-10-04T13:07:27;4.13;;;3.15;;
69890;SDS011;57170;43.964;21.262;2022-10-04T13:25:38;9.63;;;4.07;;
69890;SDS011;57170;43.964;21.262;2022-10-04T13:28:51;8.20;;;4.82;;
69890;SDS011;57170;43.964;21.262;2022-10-04T13:31:00;8.13;;;4.72;;
69890;SDS011;57170;43.964;21.262;2022-10-04T13:36:31;7.68;;;3.42;;
69890;SDS011;57170;43.964;21.262;2022-10-04T13:46:36;5.20;;;3.35;;
69890;SDS011;57170;43.964;21.262;2022-10-04T13:54:12;6.20;;;4.30;;
69890;SDS011;57170;43.964;21.262;2022-10-04T13:59:39;6.22;;;4.57;;
69890;SDS011;57170;43.964;21.262;2022-10-04T14:02:11;8.88;;;4.72;;
69890;SDS011;57170;43.964;21.262;2022-10-04T14:07:26;6.30;;;4.13;;
69890;SDS011;57170;43.964;21.262;2022-10-04T14:15:34;10.07;;;5.57;;
69890;SDS011;57170;43.964;21.262;2022-10-04T14:21:03;6.10;;;5.10;;
69890;SDS011;57170;43.964;21.262;2022-10-04T14:39:32;7.93;;;4.63;;
69890;SDS011;57170;43.964;21.262;2022-10-04T14:56:05;7.78;;;6.50;;
69890;SDS011;57170;43.964;21.262;2022-10-04T14:58:49;8.07;;;6.70;;
69890;SDS011;57170;43.964;21.262;2022-10-04T15:06:22;8.30;;;5.97;;
69890;SDS011;57170;43.964;21.262;2022-10-04T15:11:39;10.02;;;8.05;;
69890;SDS011;57170;43.964;21.262;2022-10-04T15:17:29;10.55;;;6.72;;
69890;SDS011;57170;43.964;21.262;2022-10-04T15:25:36;11.10;;;8.00;;
69890;SDS011;57170;43.964;21.262;2022-10-04T15:28:54;8.30;;;6.60;;
69890;SDS011;57170;43.964;21.262;2022-10-04T15:36:12;11.75;;;7.15;;
69890;SDS011;57170;43.964;21.262;2022-10-04T16:13:35;10.35;;;7.28;;
69890;SDS011;57170;43.964;21.262;2022-10-04T16:24:36;12.77;;;6.30;;
69890;SDS011;57170;43.964;21.262;2022-10-04T16:31:56;15.70;;;9.48;;
69890;SDS011;57170;43.964;21.262;2022-10-04T16:47:32;19.83;;;9.98;;
69890;SDS011;57170;43.964;21.262;2022-10-04T16:49:59;22.52;;;13.40;;
69890;SDS011;57170;43.964;21.262;2022-10-04T16:52:35;35.47;;;20.02;;
69890;SDS011;57170;43.964;21.262;2022-10-04T16:57:33;44.28;;;25.02;;
69890;SDS011;57170;43.964;21.262;2022-10-04T17:00:24;66.55;;;53.30;;
69890;SDS011;57170;43.964;21.262;2022-10-04T17:03:28;58.65;;;42.63;;
69890;SDS011;57170;43.964;21.262;2022-10-04T17:05:45;24.30;;;17.92;;
69890;SDS011;57170;43.964;21.262;2022-10-04T17:16:09;17.55;;;13.90;;
69890;SDS011;57170;43.964;21.262;2022-10-04T17:19:13;13.27;;;10.30;;
69890;SDS011;57170;43.964;21.262;2022-10-04T17:21:35;15.85;;;11.10;;
69890;SDS011;57170;43.964;21.262;2022-10-04T17:26:41;49.58;;;31.13;;
69890;SDS011;57170;43.964;21.262;2022-10-04T17:31:48;29.98;;;21.67;;
69890;SDS011;57170;43.964;21.262;2022-10-04T17:47:33;18.10;;;11.73;;
69890;SDS011;57170;43.964;21.262;2022-10-04T17:50:24;22.60;;;13.98;;
69890;SDS011;57170;43.964;21.262;2022-10-04T17:53:14;21.60;;;13.88;;
69890;SDS011;57170;43.964;21.262;2022-10-04T17:56:02;15.73;;;12.50;;
69890;SDS011;57170;43.964;21.262;2022-10-04T17:58:49;16.80;;;13.35;;
69890;SDS011;57170;43.964;21.262;2022-10-04T18:06:41;19.95;;;13.35;;
69890;SDS011;57170;43.964;21.262;2022-10-04T18:11:44;17.77;;;12.82;;
69890;SDS011;57170;43.964;21.262;2022-10-04T18:16:51;10.35;;;6.78;;
69890;SDS011;57170;43.964;21.262;2022-10-04T18:19:33;7.15;;;5.22;;
69890;SDS011;57170;43.964;21.262;2022-10-04T18:22:23;10.48;;;7.53;;
69890;SDS011;57170;43.964;21.262;2022-10-04T18:24:48;10.32;;;6.03;;
69890;SDS011;57170;43.964;21.262;2022-10-04T18:27:26;11.18;;;7.20;;
69890;SDS011;57170;43.964;21.262;2022-10-04T18:30:12;9.82;;;6.40;;
69890;SDS011;57170;43.964;21.262;2022-10-04T18:32:51;17.77;;;9.40;;
69890;SDS011;57170;43.964;21.262;2022-10-04T18:35:26;18.13;;;11.73;;
69890;SDS011;57170;43.964;21.262;2022-10-04T18:37:54;18.25;;;13.18;;
69890;SDS011;57170;43.964;21.262;2022-10-04T18:42:51;17.80;;;14.23;;
69890;SDS011;57170;43.964;21.262;2022-10-04T18:45:25;17.02;;;13.00;;
69890;SDS011;57170;43.964;21.262;2022-10-04T18:47:57;15.40;;;13.70;;
69890;SDS011;57170;43.964;21.262;2022-10-04T18:50:36;20.75;;;16.25;;
69890;SDS011;57170;43.964;21.262;2022-10-04T18:55:59;44.20;;;37.30;;
69890;SDS011;57170;43.964;21.262;2022-10-04T19:04:30;17.38;;;12.82;;
69890;SDS011;57170;43.964;21.262;2022-10-04T19:06:59;20.13;;;13.43;;
69890;SDS011;57170;43.964;21.262;2022-10-04T19:12:03;16.98;;;11.70;;
69890;SDS011;57170;43.964;21.262;2022-10-04T19:14:31;19.25;;;12.48;;
69890;SDS011;57170;43.964;21.262;2022-10-04T19:19:38;30.85;;;19.17;;
69890;SDS011;57170;43.964;21.262;2022-10-04T19:22:11;33.95;;;22.88;;
69890;SDS011;57170;43.964;21.262;2022-10-04T19:24:55;27.65;;;17.27;;
69890;SDS011;57170;43.964;21.262;2022-10-04T19:27:29;28.63;;;17.48;;
69890;SDS011;57170;43.964;21.262;2022-10-04T19:30:01;30.55;;;17.63;;
69890;SDS011;57170;43.964;21.262;2022-10-04T19:32:41;36.22;;;20.75;;
69890;SDS011;57170;43.964;21.262;2022-10-04T19:45:30;25.48;;;16.05;;
69890;SDS011;57170;43.964;21.262;2022-10-04T19:47:59;20.67;;;14.52;;
69890;SDS011;57170;43.964;21.262;2022-10-04T19:55:54;20.65;;;15.20;;
69890;SDS011;57170;43.964;21.262;2022-10-04T20:00:48;20.77;;;13.73;;
69890;SDS011;57170;43.964;21.262;2022-10-04T20:03:14;17.77;;;10.98;;
69890;SDS011;57170;43.964;21.262;2022-10-04T20:05:43;17.50;;;11.18;;
69890;SDS011;57170;43.964;21.262;2022-10-04T20:08:10;15.07;;;12.27;;
69890;SDS011;57170;43.964;21.262;2022-10-04T20:10:37;18.27;;;11.98;;
69890;SDS011;57170;43.964;21.262;2022-10-04T20:26:03;15.82;;;13.05;;
69890;SDS011;57170;43.964;21.262;2022-10-04T20:33:45;18.88;;;14.45;;
69890;SDS011;57170;43.964;21.262;2022-10-04T20:36:46;20.60;;;14.20;;
69890;SDS011;57170;43.964;21.262;2022-10-04T20:39:01;17.48;;;12.27;;
69890;SDS011;57170;43.964;21.262;2022-10-04T20:47:00;24.10;;;17.50;;
69890;SDS011;57170;43.964;21.262;2022-10-04T20:49:27;21.30;;;15.38;;
69890;SDS011;57170;43.964;21.262;2022-10-04T20:51:53;20.60;;;14.68;;
69890;SDS011;57170;43.964;21.262;2022-10-04T20:54:19;20.02;;;14.13;;
69890;SDS011;57170;43.964;21.262;2022-10-04T20:56:46;24.55;;;16.02;;
69890;SDS011;57170;43.964;21.262;2022-10-04T20:59:14;26.40;;;15.80;;
69890;SDS011;57170;43.964;21.262;2022-10-04T21:01:40;16.75;;;13.27;;
69890;SDS011;57170;43.964;21.262;2022-10-04T21:04:20;18.35;;;12.00;;
69890;SDS011;57170;43.964;21.262;2022-10-04T21:07:05;16.05;;;12.48;;
69890;SDS011;57170;43.964;21.262;2022-10-04T21:09:33;19.13;;;13.73;;
69890;SDS011;57170;43.964;21.262;2022-10-04T21:12:00;22.40;;;14.05;;
69890;SDS011;57170;43.964;21.262;2022-10-04T21:14:27;18.20;;;13.38;;
69890;SDS011;57170;43.964;21.262;2022-10-04T21:16:54;15.02;;;11.70;;
69890;SDS011;57170;43.964;21.262;2022-10-04T21:22:03;18.63;;;13.05;;
69890;SDS011;57170;43.964;21.262;2022-10-04T21:24:33;17.65;;;13.30;;
69890;SDS011;57170;43.964;21.262;2022-10-04T21:27:00;19.98;;;15.05;;
69890;SDS011;57170;43.964;21.262;2022-10-04T21:29:26;24.58;;;17.70;;
69890;SDS011;57170;43.964;21.262;2022-10-04T21:31:54;33.72;;;22.95;;
69890;SDS011;57170;43.964;21.262;2022-10-04T21:34:21;24.65;;;16.70;;
69890;SDS011;57170;43.964;21.262;2022-10-04T21:36:47;24.63;;;16.48;;
69890;SDS011;57170;43.964;21.262;2022-10-04T21:39:13;18.30;;;12.80;;
69890;SDS011;57170;43.964;21.262;2022-10-04T21:41:40;14.73;;;12.88;;
69890;SDS011;57170;43.964;21.262;2022-10-04T21:44:06;24.60;;;18.08;;
69890;SDS011;57170;43.964;21.262;2022-10-04T21:46:33;19.65;;;15.02;;
69890;SDS011;57170;43.964;21.262;2022-10-04T21:48:59;20.38;;;14.05;;
69890;SDS011;57170;43.964;21.262;2022-10-04T21:51:25;17.75;;;11.63;;
69890;SDS011;57170;43.964;21.262;2022-10-04T21:53:51;64.55;;;52.92;;
69890;SDS011;57170;43.964;21.262;2022-10-04T21:56:17;21.20;;;15.43;;
69890;SDS011;57170;43.964;21.262;2022-10-04T21:58:43;20.58;;;14.77;;
69890;SDS011;57170;43.964;21.262;2022-10-04T22:01:09;17.08;;;12.82;;
69890;SDS011;57170;43.964;21.262;2022-10-04T22:03:35;19.70;;;13.75;;
69890;SDS011;57170;43.964;21.262;2022-10-04T22:06:01;18.52;;;14.23;;
69890;SDS011;57170;43.964;21.262;2022-10-04T22:08:27;16.80;;;13.52;;
69890;SDS011;57170;43.964;21.262;2022-10-04T22:10:53;16.50;;;11.68;;
69890;SDS011;57170;43.964;21.262;2022-10-04T22:13:20;17.77;;;12.60;;
69890;SDS011;57170;43.964;21.262;2022-10-04T22:15:46;17.67;;;14.15;;
69890;SDS011;57170;43.964;21.262;2022-10-04T22:18:12;16.95;;;12.65;;
69890;SDS011;57170;43.964;21.262;2022-10-04T22:20:38;19.65;;;15.55;;
69890;SDS011;57170;43.964;21.262;2022-10-04T22:23:08;25.65;;;12.68;;
69890;SDS011;57170;43.964;21.262;2022-10-04T22:25:35;14.10;;;10.88;;
69890;SDS011;57170;43.964;21.262;2022-10-04T22:28:01;17.42;;;11.43;;
69890;SDS011;57170;43.964;21.262;2022-10-04T22:30:33;13.80;;;10.40;;
69890;SDS011;57170;43.964;21.262;2022-10-04T22:33:00;18.25;;;10.88;;
69890;SDS011;57170;43.964;21.262;2022-10-04T22:35:27;14.25;;;11.10;;
69890;SDS011;57170;43.964;21.262;2022-10-04T22:37:54;14.23;;;9.50;;
69890;SDS011;57170;43.964;21.262;2022-10-04T22:40:22;14.30;;;10.38;;
69890;SDS011;57170;43.964;21.262;2022-10-04T22:42:51;15.57;;;10.65;;
69890;SDS011;57170;43.964;21.262;2022-10-04T22:45:20;18.00;;;11.20;;
69890;SDS011;57170;43.964;21.262;2022-10-04T22:47:47;14.68;;;12.38;;
69890;SDS011;57170;43.964;21.262;2022-10-04T22:50:26;16.08;;;10.13;;
69890;SDS011;57170;43.964;21.262;2022-10-04T22:52:52;13.98;;;10.20;;
69890;SDS011;57170;43.964;21.262;2022-10-04T22:55:18;11.55;;;9.13;;
69890;SDS011;57170;43.964;21.262;2022-10-04T22:57:44;15.35;;;10.98;;
69890;SDS011;57170;43.964;21.262;2022-10-04T23:00:11;11.90;;;9.40;;
69890;SDS011;57170;43.964;21.262;2022-10-04T23:02:37;14.15;;;10.32;;
69890;SDS011;57170;43.964;21.262;2022-10-04T23:07:35;12.27;;;8.75;;
69890;SDS011;57170;43.964;21.262;2022-10-04T23:10:01;12.65;;;9.13;;
69890;SDS011;57170;43.964;21.262;2022-10-04T23:12:28;13.90;;;9.20;;
69890;SDS011;57170;43.964;21.262;2022-10-04T23:14:54;13.88;;;8.82;;
69890;SDS011;57170;43.964;21.262;2022-10-04T23:17:24;19.08;;;9.70;;
69890;SDS011;57170;43.964;21.262;2022-10-04T23:19:57;17.02;;;10.02;;
69890;SDS011;57170;43.964;21.262;2022-10-04T23:22:27;14.65;;;10.13;;
69890;SDS011;57170;43.964;21.262;2022-10-04T23:24:54;14.02;;;9.90;;
69890;SDS011;57170;43.964;21.262;2022-10-04T23:27:21;11.57;;;8.30;;
69890;SDS011;57170;43.964;21.262;2022-10-04T23:29:48;18.90;;;9.55;;
69890;SDS011;57170;43.964;21.262;2022-10-04T23:32:16;11.95;;;9.25;;
69890;SDS011;57170;43.964;21.262;2022-10-04T23:34:44;12.05;;;8.45;;
69890;SDS011;57170;43.964;21.262;2022-10-04T23:39:39;10.48;;;8.13;;
69890;SDS011;57170;43.964;21.262;2022-10-04T23:42:11;12.80;;;8.52;;
69890;SDS011;57170;43.964;21.262;2022-10-04T23:44:38;10.13;;;8.25;;
69890;SDS011;57170;43.964;21.262;2022-10-04T23:47:07;13.43;;;9.30;;
69890;SDS011;57170;43.964;21.262;2022-10-04T23:49:36;11.05;;;9.43;;
69890;SDS011;57170;43.964;21.262;2022-10-04T23:52:02;12.45;;;9.27;;
69890;SDS011;57170;43.964;21.262;2022-10-04T23:54:28;9.60;;;8.57;;
69890;SDS011;57170;43.964;21.262;2022-10-04T23:56:54;11.57;;;9.07;;
69890;SDS011;57170;43.964;21.262;2022-10-04T23:59:21;15.35;;;9.93;;
